sensor_id;sensor_type;location;lat;lon;timestamp;pressure;altitude;pressure_sealevel;temperature;humidity
59971;BME280;45825;45.434;9.116;2024-01-10T00:01:06;101308.63;;;6.13;69.65
59971;BME280;45825;45.434;9.116;2024-01-10T00:03:32;101306.09;;;6.08;69.38
59971;BME280;45825;45.434;9.116;2024-01-10T00:05:57;101309.63;;;6.07;70.39
59971;BME280;45825;45.434;9.116;2024-01-10T00:08:22;101315.56;;;6.14;70.35
59971;BME280;45825;45.434;9.116;2024-01-10T00:10:48;101315.72;;;6.08;70.81
59971;BME280;45825;45.434;9.116;2024-01-10T00:13:13;101319.25;;;6.05;71.42
59971;BME280;45825;45.434;9.116;2024-01-10T00:15:38;101313.88;;;6.11;70.75
59971;BME280;45825;45.434;9.116;2024-01-10T00:18:04;101310.31;;;6.15;71.13
59971;BME280;45825;45.434;9.116;2024-01-10T00:20:29;101305.06;;;6.17;71.64
59971;BME280;45825;45.434;9.116;2024-01-10T00:22:54;101305.16;;;6.12;72.08
59971;BME280;45825;45.434;9.116;2024-01-10T00:25:19;101307.66;;;6.17;71.75
59971;BME280;45825;45.434;9.116;2024-01-10T00:27:45;101312.88;;;6.17;71.74
59971;BME280;45825;45.434;9.116;2024-01-10T00:30:10;101316.41;;;6.16;70.24
59971;BME280;45825;45.434;9.116;2024-01-10T00:32:35;101322.59;;;6.12;71.38
59971;BME280;45825;45.434;9.116;2024-01-10T00:35:01;101318.19;;;6.14;71.24
59971;BME280;45825;45.434;9.116;2024-01-10T00:37:26;101312.78;;;6.23;71.45
59971;BME280;45825;45.434;9.116;2024-01-10T00:39:52;101315.56;;;6.14;71.59
59971;BME280;45825;45.434;9.116;2024-01-10T00:42:17;101321.41;;;6.27;70.86
59971;BME280;45825;45.434;9.116;2024-01-10T00:44:43;101323.25;;;6.22;70.67
59971;BME280;45825;45.434;9.116;2024-01-10T00:47:10;101326.75;;;6.22;71.27
59971;BME280;45825;45.434;9.116;2024-01-10T00:49:36;101322.34;;;6.24;70.32
59971;BME280;45825;45.434;9.116;2024-01-10T00:52:01;101319.75;;;6.23;70.65
59971;BME280;45825;45.434;9.116;2024-01-10T00:54:26;101320.09;;;6.06;71.01
59971;BME280;45825;45.434;9.116;2024-01-10T00:56:52;101317.91;;;6.29;71.12
59971;BME280;45825;45.434;9.116;2024-01-10T00:59:17;101321.41;;;6.27;69.46
59971;BME280;45825;45.434;9.116;2024-01-10T01:01:42;101323.22;;;6.25;69.26
59971;BME280;45825;45.434;9.116;2024-01-10T01:04:08;101323.78;;;6.39;68.15
59971;BME280;45825;45.434;9.116;2024-01-10T01:06:33;101322.94;;;6.37;67.23
59971;BME280;45825;45.434;9.116;2024-01-10T01:08:58;101319.53;;;6.35;67.87
59971;BME280;45825;45.434;9.116;2024-01-10T01:11:24;101330.97;;;6.28;68.02
59971;BME280;45825;45.434;9.116;2024-01-10T01:13:49;101330.88;;;6.34;68.52
59971;BME280;45825;45.434;9.116;2024-01-10T01:16:14;101336.97;;;6.33;67.17
59971;BME280;45825;45.434;9.116;2024-01-10T01:18:40;101340.47;;;6.32;67.57
59971;BME280;45825;45.434;9.116;2024-01-10T01:21:07;101337.19;;;6.24;67.32
59971;BME280;45825;45.434;9.116;2024-01-10T01:23:32;101341.69;;;6.15;69.11
59971;BME280;45825;45.434;9.116;2024-01-10T01:25:58;101346.19;;;6.09;68.58
59971;BME280;45825;45.434;9.116;2024-01-10T01:28:24;101346.94;;;6.14;68.15
59971;BME280;45825;45.434;9.116;2024-01-10T01:30:49;101340.66;;;6.23;68.87
59971;BME280;45825;45.434;9.116;2024-01-10T01:33:14;101343.59;;;6.07;69.87
59971;BME280;45825;45.434;9.116;2024-01-10T01:35:40;101343.44;;;6.15;69.53
59971;BME280;45825;45.434;9.116;2024-01-10T01:38:05;101338.03;;;6.23;67.95
59971;BME280;45825;45.434;9.116;2024-01-10T01:40:30;101344.16;;;6.22;68.47
59971;BME280;45825;45.434;9.116;2024-01-10T01:42:56;101346.75;;;6.25;68.23
59971;BME280;45825;45.434;9.116;2024-01-10T01:45:21;101344.91;;;6.28;67.70
59971;BME280;45825;45.434;9.116;2024-01-10T01:47:46;101336.41;;;6.19;66.20
59971;BME280;45825;45.434;9.116;2024-01-10T01:50:12;101333.84;;;6.15;65.79
59971;BME280;45825;45.434;9.116;2024-01-10T01:52:37;101334.03;;;6.05;65.27
59971;BME280;45825;45.434;9.116;2024-01-10T01:55:04;101340.97;;;6.07;66.56
59971;BME280;45825;45.434;9.116;2024-01-10T01:57:31;101333.97;;;6.09;67.57
59971;BME280;45825;45.434;9.116;2024-01-10T01:59:57;101341.78;;;6.09;67.94
59971;BME280;45825;45.434;9.116;2024-01-10T02:02:24;101337.41;;;6.11;67.82
59971;BME280;45825;45.434;9.116;2024-01-10T02:04:49;101333.22;;;6.01;70.01
59971;BME280;45825;45.434;9.116;2024-01-10T02:07:14;101334.47;;;5.81;70.02
59971;BME280;45825;45.434;9.116;2024-01-10T02:09:40;101335.59;;;5.66;71.04
59971;BME280;45825;45.434;9.116;2024-01-10T02:12:05;101327.78;;;5.66;71.85
59971;BME280;45825;45.434;9.116;2024-01-10T02:14:31;101333.81;;;5.68;71.56
59971;BME280;45825;45.434;9.116;2024-01-10T02:16:56;101337.28;;;5.69;71.78
59971;BME280;45825;45.434;9.116;2024-01-10T02:19:23;101345.19;;;5.66;71.54
59971;BME280;45825;45.434;9.116;2024-01-10T02:21:48;101345.22;;;5.64;71.93
59971;BME280;45825;45.434;9.116;2024-01-10T02:24:14;101340.84;;;5.66;72.05
59971;BME280;45825;45.434;9.116;2024-01-10T02:26:39;101339.88;;;5.70;71.89
59971;BME280;45825;45.434;9.116;2024-01-10T02:29:05;101335.53;;;5.69;71.17
59971;BME280;45825;45.434;9.116;2024-01-10T02:31:30;101339.03;;;5.68;71.01
59971;BME280;45825;45.434;9.116;2024-01-10T02:33:56;101339.13;;;5.64;69.02
59971;BME280;45825;45.434;9.116;2024-01-10T02:36:21;101338.22;;;5.66;67.70
59971;BME280;45825;45.434;9.116;2024-01-10T02:38:46;101345.31;;;5.59;68.50
59971;BME280;45825;45.434;9.116;2024-01-10T02:41:12;101334.94;;;5.55;66.56
59971;BME280;45825;45.434;9.116;2024-01-10T02:43:38;101333.31;;;5.46;65.83
59971;BME280;45825;45.434;9.116;2024-01-10T02:46:03;101335.03;;;5.47;67.49
59971;BME280;45825;45.434;9.116;2024-01-10T02:48:29;101329.03;;;5.43;67.65
59971;BME280;45825;45.434;9.116;2024-01-10T02:50:54;101334.94;;;5.53;67.81
59971;BME280;45825;45.434;9.116;2024-01-10T02:53:21;101323.84;;;5.40;68.98
59971;BME280;45825;45.434;9.116;2024-01-10T02:55:46;101325.56;;;5.43;69.08
59971;BME280;45825;45.434;9.116;2024-01-10T02:58:11;101331.66;;;5.43;69.69
59971;BME280;45825;45.434;9.116;2024-01-10T03:00:37;101322.94;;;5.41;69.84
59971;BME280;45825;45.434;9.116;2024-01-10T03:03:03;101327.31;;;5.42;70.59
59971;BME280;45825;45.434;9.116;2024-01-10T03:05:28;101322.84;;;5.49;70.43
59971;BME280;45825;45.434;9.116;2024-01-10T03:07:53;101320.19;;;5.51;70.71
59971;BME280;45825;45.434;9.116;2024-01-10T03:10:19;101318.53;;;5.45;69.87
59971;BME280;45825;45.434;9.116;2024-01-10T03:12:44;101321.25;;;5.40;69.85
59971;BME280;45825;45.434;9.116;2024-01-10T03:15:09;101319.50;;;5.41;70.10
59971;BME280;45825;45.434;9.116;2024-01-10T03:17:35;101317.66;;;5.46;70.38
59971;BME280;45825;45.434;9.116;2024-01-10T03:20:01;101309.06;;;5.39;70.74
59971;BME280;45825;45.434;9.116;2024-01-10T03:22:27;101314.22;;;5.44;71.48
59971;BME280;45825;45.434;9.116;2024-01-10T03:24:52;101312.41;;;5.49;70.45
59971;BME280;45825;45.434;9.116;2024-01-10T03:27:17;101311.72;;;5.38;70.85
59971;BME280;45825;45.434;9.116;2024-01-10T03:29:43;101313.44;;;5.39;70.48
59971;BME280;45825;45.434;9.116;2024-01-10T03:32:08;101308.16;;;5.43;70.38
59971;BME280;45825;45.434;9.116;2024-01-10T03:34:33;101305.47;;;5.47;70.41
59971;BME280;45825;45.434;9.116;2024-01-10T03:36:59;101304.50;;;5.54;69.84
59971;BME280;45825;45.434;9.116;2024-01-10T03:39:24;101302.78;;;5.53;69.18
59971;BME280;45825;45.434;9.116;2024-01-10T03:41:49;101314.66;;;5.69;67.88
59971;BME280;45825;45.434;9.116;2024-01-10T03:44:14;101307.59;;;5.75;67.31
59971;BME280;45825;45.434;9.116;2024-01-10T03:46:40;101307.78;;;5.65;66.63
59971;BME280;45825;45.434;9.116;2024-01-10T03:49:05;101317.34;;;5.65;65.75
59971;BME280;45825;45.434;9.116;2024-01-10T03:51:30;101321.00;;;5.56;65.95
59971;BME280;45825;45.434;9.116;2024-01-10T03:56:25;101313.03;;;5.62;67.01
59971;BME280;45825;45.434;9.116;2024-01-10T03:58:51;101320.19;;;5.52;68.11
59971;BME280;45825;45.434;9.116;2024-01-10T04:01:16;101316.56;;;5.59;67.67
59971;BME280;45825;45.434;9.116;2024-01-10T04:03:42;101324.50;;;5.53;67.66
59971;BME280;45825;45.434;9.116;2024-01-10T04:06:07;101323.78;;;5.45;67.84
59971;BME280;45825;45.434;9.116;2024-01-10T04:08:32;101324.78;;;5.38;68.66
59971;BME280;45825;45.434;9.116;2024-01-10T04:10:58;101331.13;;;5.23;69.70
59971;BME280;45825;45.434;9.116;2024-01-10T04:13:23;101321.50;;;5.25;71.09
59971;BME280;45825;45.434;9.116;2024-01-10T04:15:49;101315.94;;;5.45;70.95
59971;BME280;45825;45.434;9.116;2024-01-10T04:18:14;101319.34;;;5.50;71.13
59971;BME280;45825;45.434;9.116;2024-01-10T04:20:40;101307.19;;;5.48;69.95
59971;BME280;45825;45.434;9.116;2024-01-10T04:23:05;101314.06;;;5.53;70.10
59971;BME280;45825;45.434;9.116;2024-01-10T04:25:30;101312.94;;;5.68;68.27
59971;BME280;45825;45.434;9.116;2024-01-10T04:27:56;101306.00;;;5.66;65.92
59971;BME280;45825;45.434;9.116;2024-01-10T04:30:22;101313.81;;;5.67;66.27
59971;BME280;45825;45.434;9.116;2024-01-10T04:32:48;101308.66;;;5.64;65.01
59971;BME280;45825;45.434;9.116;2024-01-10T04:35:14;101307.47;;;5.82;64.60
59971;BME280;45825;45.434;9.116;2024-01-10T04:37:39;101316.78;;;5.96;63.79
59971;BME280;45825;45.434;9.116;2024-01-10T04:40:05;101310.66;;;5.95;63.04
59971;BME280;45825;45.434;9.116;2024-01-10T04:42:31;101316.00;;;5.91;63.45
59971;BME280;45825;45.434;9.116;2024-01-10T04:44:57;101313.00;;;5.64;64.04
59971;BME280;45825;45.434;9.116;2024-01-10T04:47:22;101317.63;;;5.48;65.22
59971;BME280;45825;45.434;9.116;2024-01-10T04:49:47;101311.53;;;5.49;66.65
59971;BME280;45825;45.434;9.116;2024-01-10T04:52:13;101315.59;;;5.65;65.74
59971;BME280;45825;45.434;9.116;2024-01-10T04:54:38;101320.75;;;5.70;65.82
59971;BME280;45825;45.434;9.116;2024-01-10T04:57:04;101320.84;;;5.64;65.69
59971;BME280;45825;45.434;9.116;2024-01-10T04:59:29;101329.72;;;5.55;66.24
59971;BME280;45825;45.434;9.116;2024-01-10T05:01:54;101325.75;;;5.81;65.37
59971;BME280;45825;45.434;9.116;2024-01-10T05:04:20;101324.34;;;5.64;65.22
59971;BME280;45825;45.434;9.116;2024-01-10T05:06:45;101332.84;;;5.74;65.17
59971;BME280;45825;45.434;9.116;2024-01-10T05:09:10;101334.38;;;5.86;63.68
59971;BME280;45825;45.434;9.116;2024-01-10T05:11:36;101325.81;;;5.78;64.34
59971;BME280;45825;45.434;9.116;2024-01-10T05:14:02;101329.56;;;5.64;63.95
59971;BME280;45825;45.434;9.116;2024-01-10T05:16:28;101335.75;;;5.57;64.61
59971;BME280;45825;45.434;9.116;2024-01-10T05:18:53;101346.81;;;5.73;65.40
59971;BME280;45825;45.434;9.116;2024-01-10T05:21:19;101345.22;;;5.64;65.24
59971;BME280;45825;45.434;9.116;2024-01-10T05:23:44;101343.63;;;5.55;65.70
59971;BME280;45825;45.434;9.116;2024-01-10T05:26:10;101347.94;;;5.56;66.03
59971;BME280;45825;45.434;9.116;2024-01-10T05:28:35;101344.50;;;5.54;66.54
59971;BME280;45825;45.434;9.116;2024-01-10T05:31:00;101350.00;;;5.37;67.16
59971;BME280;45825;45.434;9.116;2024-01-10T05:33:26;101351.66;;;5.44;66.48
59971;BME280;45825;45.434;9.116;2024-01-10T05:35:51;101355.41;;;5.26;67.09
59971;BME280;45825;45.434;9.116;2024-01-10T05:38:17;101359.59;;;5.37;67.75
59971;BME280;45825;45.434;9.116;2024-01-10T05:40:42;101357.91;;;5.34;67.80
59971;BME280;45825;45.434;9.116;2024-01-10T05:43:07;101362.16;;;5.40;68.16
59971;BME280;45825;45.434;9.116;2024-01-10T05:45:33;101361.31;;;5.38;68.77
59971;BME280;45825;45.434;9.116;2024-01-10T05:47:58;101367.44;;;5.37;67.94
59971;BME280;45825;45.434;9.116;2024-01-10T05:50:24;101360.63;;;5.26;67.92
59971;BME280;45825;45.434;9.116;2024-01-10T05:52:49;101368.75;;;5.06;68.49
59971;BME280;45825;45.434;9.116;2024-01-10T05:55:14;101367.13;;;4.99;68.88
59971;BME280;45825;45.434;9.116;2024-01-10T05:57:40;101371.53;;;4.95;68.47
59971;BME280;45825;45.434;9.116;2024-01-10T06:00:06;101369.00;;;4.91;69.38
59971;BME280;45825;45.434;9.116;2024-01-10T06:02:37;101368.09;;;4.93;69.43
59971;BME280;45825;45.434;9.116;2024-01-10T06:05:10;101378.66;;;4.84;70.08
59971;BME280;45825;45.434;9.116;2024-01-10T06:07:39;101375.09;;;4.88;68.70
59971;BME280;45825;45.434;9.116;2024-01-10T06:10:06;101368.16;;;4.88;70.33
59971;BME280;45825;45.434;9.116;2024-01-10T06:12:32;101374.97;;;4.96;69.31
59971;BME280;45825;45.434;9.116;2024-01-10T06:14:57;101372.56;;;4.82;69.57
59971;BME280;45825;45.434;9.116;2024-01-10T06:17:23;101368.94;;;4.92;70.42
59971;BME280;45825;45.434;9.116;2024-01-10T06:19:49;101381.13;;;4.93;70.14
59971;BME280;45825;45.434;9.116;2024-01-10T06:22:14;101381.03;;;4.98;69.44
59971;BME280;45825;45.434;9.116;2024-01-10T06:24:40;101384.59;;;4.94;68.92
59971;BME280;45825;45.434;9.116;2024-01-10T06:27:08;101378.59;;;4.88;69.03
59971;BME280;45825;45.434;9.116;2024-01-10T06:29:35;101383.88;;;4.82;69.04
59971;BME280;45825;45.434;9.116;2024-01-10T06:32:00;101384.94;;;4.69;70.08
59971;BME280;45825;45.434;9.116;2024-01-10T06:34:26;101376.16;;;4.73;69.54
59971;BME280;45825;45.434;9.116;2024-01-10T06:36:52;101384.81;;;4.78;70.44
59971;BME280;45825;45.434;9.116;2024-01-10T06:39:17;101383.00;;;4.83;69.32
59971;BME280;45825;45.434;9.116;2024-01-10T06:41:46;101381.38;;;4.73;70.62
59971;BME280;45825;45.434;9.116;2024-01-10T06:44:11;101385.59;;;4.85;70.96
59971;BME280;45825;45.434;9.116;2024-01-10T06:46:37;101385.53;;;4.89;70.80
59971;BME280;45825;45.434;9.116;2024-01-10T06:49:02;101384.66;;;4.87;69.98
59971;BME280;45825;45.434;9.116;2024-01-10T06:51:28;101381.91;;;5.00;70.19
59971;BME280;45825;45.434;9.116;2024-01-10T06:53:53;101386.34;;;4.93;71.16
59971;BME280;45825;45.434;9.116;2024-01-10T06:56:25;101391.41;;;5.04;71.02
59971;BME280;45825;45.434;9.116;2024-01-10T06:58:50;101393.13;;;5.03;70.98
59971;BME280;45825;45.434;9.116;2024-01-10T07:01:16;101393.88;;;5.15;71.46
59971;BME280;45825;45.434;9.116;2024-01-10T07:03:41;101396.50;;;5.13;70.95
59971;BME280;45825;45.434;9.116;2024-01-10T07:06:07;101393.19;;;5.00;72.21
59971;BME280;45825;45.434;9.116;2024-01-10T07:08:32;101395.72;;;5.05;71.90
59971;BME280;45825;45.434;9.116;2024-01-10T07:10:58;101397.31;;;5.17;71.38
59971;BME280;45825;45.434;9.116;2024-01-10T07:13:23;101395.72;;;5.07;70.63
59971;BME280;45825;45.434;9.116;2024-01-10T07:15:48;101404.44;;;5.06;72.42
59971;BME280;45825;45.434;9.116;2024-01-10T07:18:16;101409.59;;;5.09;72.55
59971;BME280;45825;45.434;9.116;2024-01-10T07:20:41;101412.34;;;4.98;72.74
59971;BME280;45825;45.434;9.116;2024-01-10T07:23:06;101412.28;;;5.02;72.70
59971;BME280;45825;45.434;9.116;2024-01-10T07:25:32;101415.78;;;5.03;72.56
59971;BME280;45825;45.434;9.116;2024-01-10T07:27:59;101418.25;;;5.12;71.91
59971;BME280;45825;45.434;9.116;2024-01-10T07:30:24;101407.16;;;4.96;72.50
59971;BME280;45825;45.434;9.116;2024-01-10T07:32:50;101411.44;;;5.00;71.48
59971;BME280;45825;45.434;9.116;2024-01-10T07:35:15;101423.72;;;4.94;72.76
59971;BME280;45825;45.434;9.116;2024-01-10T07:37:41;101419.25;;;5.02;72.83
59971;BME280;45825;45.434;9.116;2024-01-10T07:40:08;101424.59;;;4.94;73.27
59971;BME280;45825;45.434;9.116;2024-01-10T07:42:34;101422.00;;;4.91;70.34
59971;BME280;45825;45.434;9.116;2024-01-10T07:45:00;101430.75;;;4.88;70.74
59971;BME280;45825;45.434;9.116;2024-01-10T07:47:29;101438.75;;;4.74;70.56
59971;BME280;45825;45.434;9.116;2024-01-10T07:49:54;101436.16;;;4.73;70.66
59971;BME280;45825;45.434;9.116;2024-01-10T07:52:19;101441.41;;;4.68;71.68
59971;BME280;45825;45.434;9.116;2024-01-10T07:54:45;101449.06;;;4.84;71.13
59971;BME280;45825;45.434;9.116;2024-01-10T07:57:10;101450.94;;;4.72;71.12
59971;BME280;45825;45.434;9.116;2024-01-10T07:59:36;101443.06;;;4.77;70.80
59971;BME280;45825;45.434;9.116;2024-01-10T08:02:01;101444.84;;;4.72;71.27
59971;BME280;45825;45.434;9.116;2024-01-10T08:04:27;101442.25;;;4.72;71.35
59971;BME280;45825;45.434;9.116;2024-01-10T08:06:53;101447.41;;;4.78;69.97
59971;BME280;45825;45.434;9.116;2024-01-10T08:09:19;101448.31;;;4.74;71.57
59971;BME280;45825;45.434;9.116;2024-01-10T08:11:45;101452.63;;;4.78;71.28
59971;BME280;45825;45.434;9.116;2024-01-10T08:14:11;101459.56;;;4.76;69.80
59971;BME280;45825;45.434;9.116;2024-01-10T08:16:36;101446.63;;;4.70;70.35
59971;BME280;45825;45.434;9.116;2024-01-10T08:19:01;101457.16;;;4.62;71.12
59971;BME280;45825;45.434;9.116;2024-01-10T08:21:27;101453.72;;;4.57;72.67
59971;BME280;45825;45.434;9.116;2024-01-10T08:23:52;101457.13;;;4.64;73.16
59971;BME280;45825;45.434;9.116;2024-01-10T08:26:17;101462.44;;;4.56;73.91
59971;BME280;45825;45.434;9.116;2024-01-10T08:28:42;101467.59;;;4.62;73.39
59971;BME280;45825;45.434;9.116;2024-01-10T08:31:08;101464.03;;;4.66;72.57
59971;BME280;45825;45.434;9.116;2024-01-10T08:33:33;101471.13;;;4.55;72.71
59971;BME280;45825;45.434;9.116;2024-01-10T08:35:59;101480.66;;;4.57;71.89
59971;BME280;45825;45.434;9.116;2024-01-10T08:38:24;101481.56;;;4.56;71.89
59971;BME280;45825;45.434;9.116;2024-01-10T08:40:49;101481.50;;;4.61;72.46
59971;BME280;45825;45.434;9.116;2024-01-10T08:43:15;101482.47;;;4.49;70.78
59971;BME280;45825;45.434;9.116;2024-01-10T08:45:40;101488.50;;;4.56;71.63
59971;BME280;45825;45.434;9.116;2024-01-10T08:48:05;101483.09;;;4.74;70.34
59971;BME280;45825;45.434;9.116;2024-01-10T08:50:32;101490.03;;;4.74;69.90
59971;BME280;45825;45.434;9.116;2024-01-10T08:52:59;101482.25;;;4.71;69.25
59971;BME280;45825;45.434;9.116;2024-01-10T08:55:24;101484.84;;;4.72;69.49
59971;BME280;45825;45.434;9.116;2024-01-10T08:57:50;101498.69;;;4.76;69.41
59971;BME280;45825;45.434;9.116;2024-01-10T09:00:15;101496.13;;;4.71;69.37
59971;BME280;45825;45.434;9.116;2024-01-10T09:02:41;101494.34;;;4.77;69.53
59971;BME280;45825;45.434;9.116;2024-01-10T09:05:06;101501.19;;;4.88;70.03
59971;BME280;45825;45.434;9.116;2024-01-10T09:07:35;101509.00;;;4.87;70.15
59971;BME280;45825;45.434;9.116;2024-01-10T09:10:00;101502.03;;;4.91;70.10
59971;BME280;45825;45.434;9.116;2024-01-10T09:12:26;101504.59;;;4.94;70.39
59971;BME280;45825;45.434;9.116;2024-01-10T09:14:51;101500.16;;;5.02;70.62
59971;BME280;45825;45.434;9.116;2024-01-10T09:17:17;101509.59;;;5.11;69.33
59971;BME280;45825;45.434;9.116;2024-01-10T09:19:42;101507.94;;;5.05;71.33
59971;BME280;45825;45.434;9.116;2024-01-10T09:22:07;101509.53;;;5.15;71.49
59971;BME280;45825;45.434;9.116;2024-01-10T09:24:33;101509.53;;;5.17;70.48
59971;BME280;45825;45.434;9.116;2024-01-10T09:26:58;101511.13;;;5.26;69.15
59971;BME280;45825;45.434;9.116;2024-01-10T09:29:24;101515.41;;;5.31;68.95
59971;BME280;45825;45.434;9.116;2024-01-10T09:31:50;101511.97;;;5.31;68.99
59971;BME280;45825;45.434;9.116;2024-01-10T09:34:16;101517.91;;;5.39;68.48
59971;BME280;45825;45.434;9.116;2024-01-10T09:36:41;101520.69;;;5.27;66.76
59971;BME280;45825;45.434;9.116;2024-01-10T09:39:07;101521.38;;;5.41;66.86
59971;BME280;45825;45.434;9.116;2024-01-10T09:41:43;101522.16;;;5.48;64.96
59971;BME280;45825;45.434;9.116;2024-01-10T09:44:10;101529.19;;;5.41;64.81
59971;BME280;45825;45.434;9.116;2024-01-10T09:46:38;101528.47;;;5.30;65.38
59971;BME280;45825;45.434;9.116;2024-01-10T09:49:06;101527.69;;;5.25;66.51
59971;BME280;45825;45.434;9.116;2024-01-10T09:51:33;101531.19;;;5.24;66.13
59971;BME280;45825;45.434;9.116;2024-01-10T09:54:02;101531.13;;;5.27;66.02
59971;BME280;45825;45.434;9.116;2024-01-10T09:56:28;101532.09;;;5.20;66.65
59971;BME280;45825;45.434;9.116;2024-01-10T09:58:55;101536.63;;;5.05;66.16
59971;BME280;45825;45.434;9.116;2024-01-10T10:01:23;101537.69;;;4.88;66.39
59971;BME280;45825;45.434;9.116;2024-01-10T10:03:49;101537.63;;;4.95;70.17
59971;BME280;45825;45.434;9.116;2024-01-10T10:06:16;101543.66;;;4.98;68.04
59971;BME280;45825;45.434;9.116;2024-01-10T10:08:41;101538.34;;;5.06;66.49
59971;BME280;45825;45.434;9.116;2024-01-10T10:11:11;101538.41;;;5.01;66.27
59971;BME280;45825;45.434;9.116;2024-01-10T10:13:37;101539.19;;;5.08;66.85
59971;BME280;45825;45.434;9.116;2024-01-10T10:16:07;101536.63;;;5.03;66.49
59971;BME280;45825;45.434;9.116;2024-01-10T10:18:35;101537.31;;;5.20;67.40
59971;BME280;45825;45.434;9.116;2024-01-10T10:23:43;101538.19;;;5.18;66.46
59971;BME280;45825;45.434;9.116;2024-01-10T10:26:16;101537.19;;;5.30;66.90
59971;BME280;45825;45.434;9.116;2024-01-10T10:28:46;101537.94;;;5.39;66.21
59971;BME280;45825;45.434;9.116;2024-01-10T10:31:11;101540.38;;;5.53;66.14
59971;BME280;45825;45.434;9.116;2024-01-10T10:33:37;101537.84;;;5.47;65.08
59971;BME280;45825;45.434;9.116;2024-01-10T10:36:02;101538.56;;;5.56;66.29
59971;BME280;45825;45.434;9.116;2024-01-10T10:38:28;101533.25;;;5.64;66.04
59971;BME280;45825;45.434;9.116;2024-01-10T10:40:53;101536.13;;;5.45;66.45
59971;BME280;45825;45.434;9.116;2024-01-10T10:43:21;101532.44;;;5.57;65.64
59971;BME280;45825;45.434;9.116;2024-01-10T10:45:48;101544.47;;;5.69;65.30
59971;BME280;45825;45.434;9.116;2024-01-10T10:48:17;101535.69;;;5.75;64.54
59971;BME280;45825;45.434;9.116;2024-01-10T10:51:02;101537.53;;;5.67;63.01
59971;BME280;45825;45.434;9.116;2024-01-10T10:53:29;101535.16;;;5.53;64.53
59971;BME280;45825;45.434;9.116;2024-01-10T10:55:57;101529.78;;;5.62;64.57
59971;BME280;45825;45.434;9.116;2024-01-10T10:58:24;101535.94;;;5.56;63.44
59971;BME280;45825;45.434;9.116;2024-01-10T11:00:50;101529.94;;;5.53;63.17
59971;BME280;45825;45.434;9.116;2024-01-10T11:03:16;101532.44;;;5.61;63.81
59971;BME280;45825;45.434;9.116;2024-01-10T11:05:42;101529.22;;;5.40;63.02
59971;BME280;45825;45.434;9.116;2024-01-10T11:08:10;101524.00;;;5.40;63.37
59971;BME280;45825;45.434;9.116;2024-01-10T11:10:39;101532.84;;;5.28;64.08
59971;BME280;45825;45.434;9.116;2024-01-10T11:16:11;101519.63;;;5.40;64.16
59971;BME280;45825;45.434;9.116;2024-01-10T11:21:44;101519.63;;;5.43;63.53
59971;BME280;45825;45.434;9.116;2024-01-10T11:24:15;101521.16;;;5.57;64.36
59971;BME280;45825;45.434;9.116;2024-01-10T11:26:41;101527.16;;;5.64;63.85
59971;BME280;45825;45.434;9.116;2024-01-10T11:29:06;101518.50;;;5.62;63.19
59971;BME280;45825;45.434;9.116;2024-01-10T11:31:32;101519.63;;;5.42;63.63
59971;BME280;45825;45.434;9.116;2024-01-10T11:33:59;101518.75;;;5.41;64.53
59971;BME280;45825;45.434;9.116;2024-01-10T11:36:25;101510.91;;;5.44;64.65
59971;BME280;45825;45.434;9.116;2024-01-10T11:41:23;101507.63;;;5.88;64.59
59971;BME280;45825;45.434;9.116;2024-01-10T11:46:46;101500.16;;;5.65;63.38
59971;BME280;45825;45.434;9.116;2024-01-10T11:49:13;101497.72;;;5.52;63.27
59971;BME280;45825;45.434;9.116;2024-01-10T11:51:44;101488.09;;;5.56;63.65
59971;BME280;45825;45.434;9.116;2024-01-10T11:54:10;101489.13;;;5.45;64.43
59971;BME280;45825;45.434;9.116;2024-01-10T11:56:42;101485.31;;;5.67;64.79
59971;BME280;45825;45.434;9.116;2024-01-10T11:59:16;101473.00;;;5.75;64.07
59971;BME280;45825;45.434;9.116;2024-01-10T12:01:43;101479.72;;;5.92;63.14
59971;BME280;45825;45.434;9.116;2024-01-10T12:04:09;101474.25;;;6.07;64.06
59971;BME280;45825;45.434;9.116;2024-01-10T12:06:37;101471.00;;;5.93;63.60
59971;BME280;45825;45.434;9.116;2024-01-10T12:09:03;101473.19;;;6.19;63.98
59971;BME280;45825;45.434;9.116;2024-01-10T12:11:35;101469.44;;;6.33;64.01
59971;BME280;45825;45.434;9.116;2024-01-10T12:14:01;101465.53;;;6.55;63.49
59971;BME280;45825;45.434;9.116;2024-01-10T12:16:27;101461.03;;;6.62;62.79
59971;BME280;45825;45.434;9.116;2024-01-10T12:18:52;101467.16;;;6.61;62.13
59971;BME280;45825;45.434;9.116;2024-01-10T12:21:18;101457.63;;;6.59;62.40
59971;BME280;45825;45.434;9.116;2024-01-10T12:23:43;101455.00;;;6.59;61.50
59971;BME280;45825;45.434;9.116;2024-01-10T12:26:09;101451.91;;;6.39;61.71
59971;BME280;45825;45.434;9.116;2024-01-10T12:28:37;101454.59;;;6.35;62.92
59971;BME280;45825;45.434;9.116;2024-01-10T12:31:06;101449.28;;;6.38;62.96
59971;BME280;45825;45.434;9.116;2024-01-10T12:33:36;101441.25;;;6.49;63.39
59971;BME280;45825;45.434;9.116;2024-01-10T12:36:06;101448.13;;;6.54;63.08
59971;BME280;45825;45.434;9.116;2024-01-10T12:38:33;101436.78;;;6.54;63.50
59971;BME280;45825;45.434;9.116;2024-01-10T12:40:59;101437.56;;;6.59;62.90
59971;BME280;45825;45.434;9.116;2024-01-10T12:43:26;101435.81;;;6.60;63.00
59971;BME280;45825;45.434;9.116;2024-01-10T12:46:11;101440.22;;;6.57;62.11
59971;BME280;45825;45.434;9.116;2024-01-10T12:48:40;101433.34;;;6.52;62.80
59971;BME280;45825;45.434;9.116;2024-01-10T12:51:10;101426.88;;;6.26;62.49
59971;BME280;45825;45.434;9.116;2024-01-10T12:53:43;101426.06;;;6.24;62.41
59971;BME280;45825;45.434;9.116;2024-01-10T12:56:10;101427.69;;;6.29;63.08
59971;BME280;45825;45.434;9.116;2024-01-10T12:58:40;101430.16;;;6.36;64.24
59971;BME280;45825;45.434;9.116;2024-01-10T13:01:08;101423.19;;;6.36;64.54
59971;BME280;45825;45.434;9.116;2024-01-10T13:03:33;101427.50;;;6.39;64.17
59971;BME280;45825;45.434;9.116;2024-01-10T13:05:59;101415.13;;;6.47;63.66
59971;BME280;45825;45.434;9.116;2024-01-10T13:08:24;101420.59;;;6.35;63.03
59971;BME280;45825;45.434;9.116;2024-01-10T13:10:50;101412.59;;;6.44;63.90